createdAt,value
2023-04-16T00:01:21.352Z,2.97
2023-04-16T00:03:51.147Z,3.10
2023-04-16T00:06:19.237Z,2.20
2023-04-16T00:08:47.549Z,2.65
2023-04-16T00:11:16.007Z,2.65
2023-04-16T00:13:44.393Z,2.00
2023-04-16T00:16:12.394Z,3.10
2023-04-16T00:18:40.789Z,2.67
2023-04-16T00:21:10.334Z,2.95
2023-04-16T00:23:38.905Z,2.78
2023-04-16T00:26:07.088Z,2.80
2023-04-16T00:28:35.423Z,2.42
2023-04-16T00:31:03.508Z,3.03
2023-04-16T00:33:31.901Z,3.08
2023-04-16T00:36:00.486Z,3.15
2023-04-16T00:38:32.407Z,3.77
2023-04-16T00:41:00.483Z,2.60
2023-04-16T00:43:28.731Z,2.85
2023-04-16T00:45:57.963Z,3.22
2023-04-16T00:48:27.820Z,2.53
2023-04-16T00:50:56.411Z,2.40
2023-04-16T00:53:24.810Z,2.90
2023-04-16T00:55:54.573Z,3.25
2023-04-16T00:58:22.879Z,2.67
2023-04-16T01:00:51.733Z,2.95
2023-04-16T01:03:20.104Z,3.20
2023-04-16T01:05:50.627Z,3.95
2023-04-16T01:08:19.449Z,3.70
2023-04-16T01:10:47.518Z,3.67
2023-04-16T01:13:17.137Z,3.17
2023-04-16T01:15:45.283Z,2.50
2023-04-16T01:18:17.204Z,2.92
2023-04-16T01:20:47.038Z,2.75
2023-04-16T01:23:15.518Z,3.35
2023-04-16T01:25:43.510Z,2.45
2023-04-16T01:28:11.847Z,2.93
2023-04-16T01:30:39.995Z,2.75
2023-04-16T01:33:17.956Z,3.50
2023-04-16T01:35:47.394Z,2.67
2023-04-16T01:38:17.409Z,3.10
2023-04-16T01:40:45.505Z,3.50
2023-04-16T01:43:13.804Z,4.13
2023-04-16T01:45:42.119Z,3.40
2023-04-16T01:48:10.631Z,3.47
2023-04-16T01:50:38.707Z,2.55
2023-04-16T01:53:09.607Z,3.03
2023-04-16T01:55:37.644Z,3.45
2023-04-16T01:58:07.801Z,4.18
2023-04-16T02:00:36.324Z,5.03
2023-04-16T02:03:04.944Z,4.63
2023-04-16T02:05:33.169Z,3.90
2023-04-16T02:08:01.837Z,4.00
2023-04-16T02:10:32.866Z,4.40
2023-04-16T02:13:01.396Z,4.20
2023-04-16T02:15:29.494Z,4.93
2023-04-16T02:17:57.893Z,4.13
2023-04-16T02:20:27.105Z,4.65
2023-04-16T02:22:59.961Z,4.75
2023-04-16T02:25:28.915Z,4.75
2023-04-16T02:28:00.271Z,3.95
2023-04-16T02:30:36.592Z,5.20
2023-04-16T02:33:07.239Z,4.80
2023-04-16T02:35:36.437Z,4.47
2023-04-16T02:38:06.362Z,4.68
2023-04-16T02:40:36.244Z,4.50
2023-04-16T02:43:05.862Z,4.20
2023-04-16T02:45:34.551Z,4.65
2023-04-16T02:48:02.870Z,5.15
2023-04-16T02:50:30.988Z,4.45
2023-04-16T02:52:59.277Z,5.07
2023-04-16T02:55:28.104Z,5.13
2023-04-16T02:57:56.434Z,4.50
2023-04-16T03:00:25.921Z,4.65
2023-04-16T03:02:54.422Z,4.60
2023-04-16T03:05:22.648Z,4.25
2023-04-16T03:07:56.396Z,4.87
2023-04-16T03:10:24.946Z,4.68
2023-04-16T03:12:53.230Z,4.70
2023-04-16T03:15:21.230Z,5.32
2023-04-16T03:17:51.207Z,4.90
2023-04-16T03:20:19.747Z,4.30
2023-04-16T03:22:48.152Z,4.95
2023-04-16T03:25:16.441Z,4.72
2023-04-16T03:27:44.840Z,4.80
2023-04-16T03:30:14.483Z,4.80
2023-04-16T03:32:43.141Z,4.77
2023-04-16T03:35:13.645Z,5.53
2023-04-16T03:37:42.127Z,5.18
2023-04-16T03:40:11.211Z,4.45
2023-04-16T03:42:39.661Z,4.50
2023-04-16T03:45:09.374Z,4.67
2023-04-16T03:47:38.294Z,5.10
2023-04-16T03:50:07.039Z,4.65
2023-04-16T03:52:36.640Z,5.40
2023-04-16T03:55:05.346Z,5.70
2023-04-16T03:57:34.110Z,4.80
2023-04-16T04:00:09.793Z,5.10
2023-04-16T04:02:55.474Z,5.10
2023-04-16T04:05:24.117Z,5.20
2023-04-16T04:07:54.963Z,4.40
2023-04-16T04:10:23.171Z,4.93
2023-04-16T04:12:51.552Z,5.32
2023-04-16T04:15:19.644Z,4.47
2023-04-16T04:17:49.012Z,4.45
2023-04-16T04:20:17.268Z,4.57
2023-04-16T04:22:47.471Z,5.33
2023-04-16T04:25:17.953Z,5.57
2023-04-16T04:27:46.212Z,4.90
2023-04-16T04:30:14.208Z,5.07
2023-04-16T04:32:43.359Z,4.43
2023-04-16T04:35:11.523Z,5.10
2023-04-16T04:37:39.869Z,5.00
2023-04-16T04:40:19.728Z,4.75
2023-04-16T04:42:47.984Z,4.55
2023-04-16T04:45:16.921Z,5.53
2023-04-16T04:47:45.156Z,4.93
2023-04-16T04:50:13.215Z,4.72
2023-04-16T04:52:42.205Z,4.53
2023-04-16T04:55:10.550Z,4.88
2023-04-16T04:57:40.220Z,4.88
2023-04-16T05:00:09.378Z,4.63
2023-04-16T05:02:47.348Z,4.93
2023-04-16T05:05:15.657Z,5.55
2023-04-16T05:07:43.907Z,4.90
2023-04-16T05:10:11.995Z,4.75
2023-04-16T05:12:41.570Z,4.63
2023-04-16T05:15:10.554Z,4.95
2023-04-16T05:17:38.832Z,5.03
2023-04-16T05:20:08.648Z,4.95
2023-04-16T05:22:36.918Z,4.25
2023-04-16T05:25:05.371Z,4.13
2023-04-16T05:27:33.615Z,5.03
2023-04-16T05:30:02.969Z,5.30
2023-04-16T05:32:31.551Z,4.57
2023-04-16T05:34:59.589Z,4.53
2023-04-16T05:37:27.776Z,3.20
2023-04-16T05:39:55.950Z,4.18
2023-04-16T05:42:24.247Z,4.45
2023-04-16T05:44:52.412Z,4.80
2023-04-16T05:47:22.192Z,3.78
2023-04-16T05:49:50.193Z,3.70
2023-04-16T05:52:18.352Z,3.63
2023-04-16T05:54:46.402Z,3.28
2023-04-16T05:57:14.877Z,3.60
2023-04-16T05:59:42.886Z,4.13
2023-04-16T06:02:11.214Z,3.30
2023-04-16T06:04:40.646Z,3.65
2023-04-16T06:07:08.938Z,3.17
2023-04-16T06:09:37.018Z,3.13
2023-04-16T06:12:05.562Z,3.47
2023-04-16T06:14:33.558Z,3.23
2023-04-16T06:17:01.834Z,2.75
2023-04-16T06:19:29.794Z,3.75
2023-04-16T06:21:59.402Z,2.75
2023-04-16T06:24:27.436Z,2.85
2023-04-16T06:26:55.642Z,3.10
2023-04-16T06:29:30.677Z,3.53
2023-04-16T06:32:08.671Z,3.08
2023-04-16T06:34:36.795Z,4.18
2023-04-16T06:37:08.399Z,2.90
2023-04-16T06:39:37.914Z,2.73
2023-04-16T06:42:06.264Z,3.22
2023-04-16T06:44:34.276Z,3.30
2023-04-16T06:47:02.714Z,3.22
2023-04-16T06:49:30.870Z,3.70
2023-04-16T06:51:59.284Z,4.00
2023-04-16T06:54:28.585Z,4.13
2023-04-16T06:56:56.923Z,3.40
2023-04-16T06:59:24.897Z,3.45
2023-04-16T07:01:53.321Z,3.63
2023-04-16T07:04:21.651Z,4.27
2023-04-16T07:06:50.031Z,3.90
2023-04-16T07:09:18.535Z,3.78
2023-04-16T07:11:48.212Z,3.65
2023-04-16T07:14:16.275Z,4.10
2023-04-16T07:16:44.543Z,4.97
2023-04-16T07:19:12.555Z,4.40
2023-04-16T07:21:41.978Z,4.32
2023-04-16T07:24:11.000Z,3.45
2023-04-16T07:26:39.313Z,4.25
2023-04-16T07:29:08.912Z,5.17
2023-04-16T07:31:37.473Z,4.22
2023-04-16T07:34:05.649Z,4.82
2023-04-16T07:36:33.914Z,3.53
2023-04-16T07:39:01.892Z,3.95
2023-04-16T07:41:30.418Z,4.33
2023-04-16T07:43:58.933Z,5.20
2023-04-16T07:46:39.272Z,4.30
2023-04-16T07:49:14.018Z,5.20
2023-04-16T07:51:42.308Z,4.47
2023-04-16T07:54:11.079Z,5.07
2023-04-16T07:56:39.509Z,4.50
2023-04-16T07:59:21.041Z,4.93
2023-04-16T08:01:54.245Z,4.35
2023-04-16T08:04:25.082Z,4.00
2023-04-16T08:06:54.361Z,4.43
2023-04-16T08:09:23.828Z,4.30
2023-04-16T08:11:52.118Z,3.80
2023-04-16T08:14:20.338Z,4.85
2023-04-16T08:16:48.572Z,4.40
2023-04-16T08:19:18.255Z,4.87
2023-04-16T08:21:46.528Z,4.45
2023-04-16T08:24:14.534Z,4.90
2023-04-16T08:26:42.824Z,4.50
2023-04-16T08:29:11.157Z,4.38
2023-04-16T08:31:39.729Z,3.97
2023-04-16T08:34:07.806Z,5.30
2023-04-16T08:36:37.402Z,4.47
2023-04-16T08:39:05.852Z,3.63
2023-04-16T08:41:36.205Z,3.95
2023-04-16T08:44:09.364Z,4.33
2023-04-16T08:46:38.806Z,3.67
2023-04-16T08:49:08.058Z,4.22
2023-04-16T08:51:38.361Z,3.90
2023-04-16T08:54:09.886Z,3.45
2023-04-16T08:56:39.473Z,3.37
2023-04-16T08:59:10.674Z,4.10
2023-04-16T09:01:41.589Z,4.43
2023-04-16T09:04:10.285Z,3.50
2023-04-16T09:06:41.423Z,4.90
2023-04-16T09:09:09.989Z,3.50
2023-04-16T09:11:39.741Z,3.38
2023-04-16T09:14:11.103Z,4.07
2023-04-16T09:16:40.867Z,3.63
2023-04-16T09:19:09.220Z,3.58
2023-04-16T09:21:38.139Z,4.50
2023-04-16T09:24:08.155Z,3.45
2023-04-16T09:26:36.726Z,3.85
2023-04-16T09:29:04.769Z,4.00
2023-04-16T09:31:33.094Z,4.00
2023-04-16T09:34:05.335Z,4.07
2023-04-16T09:36:34.066Z,3.75
2023-04-16T09:39:02.349Z,4.50
2023-04-16T09:41:35.836Z,3.80
2023-04-16T09:44:05.947Z,3.67
2023-04-16T09:46:36.137Z,3.03
2023-04-16T09:49:06.512Z,3.42
2023-04-16T09:51:38.049Z,4.03
2023-04-16T09:54:06.526Z,2.88
2023-04-16T09:56:41.366Z,4.05
2023-04-16T09:59:10.402Z,3.37
2023-04-16T10:01:38.978Z,3.80
2023-04-16T10:04:07.777Z,3.88
2023-04-16T10:06:36.166Z,3.47
2023-04-16T10:09:08.201Z,3.60
2023-04-16T10:11:38.318Z,3.57
2023-04-16T10:14:06.330Z,3.70
2023-04-16T10:16:35.282Z,4.15
2023-04-16T10:19:03.315Z,3.70
2023-04-16T10:21:33.859Z,4.82
2023-04-16T10:24:02.490Z,3.90
2023-04-16T10:26:31.024Z,3.92
2023-04-16T10:29:01.160Z,3.70
2023-04-16T10:31:29.553Z,4.60
2023-04-16T10:33:57.739Z,5.43
2023-04-16T10:36:27.595Z,4.67
2023-04-16T10:39:00.640Z,3.95
2023-04-16T10:41:29.171Z,3.78
2023-04-16T10:44:09.504Z,3.90
2023-04-16T10:46:39.794Z,4.25
2023-04-16T10:49:15.063Z,3.77
2023-04-16T10:51:43.398Z,4.32
2023-04-16T10:54:22.505Z,4.75
2023-04-16T10:56:51.338Z,4.43
2023-04-16T10:59:21.708Z,3.67
2023-04-16T11:01:52.904Z,4.20
2023-04-16T11:04:33.491Z,4.30
2023-04-16T11:07:06.189Z,4.25
2023-04-16T11:09:57.679Z,4.50
2023-04-16T11:12:28.951Z,5.63
2023-04-16T11:15:01.436Z,4.67
2023-04-16T11:17:32.608Z,4.82
2023-04-16T11:20:00.897Z,5.13
2023-04-16T11:22:29.180Z,5.60
2023-04-16T11:24:57.950Z,5.55
2023-04-16T11:27:26.568Z,6.03
2023-04-16T11:30:00.060Z,4.50
2023-04-16T11:32:28.658Z,5.75
2023-04-16T11:34:56.595Z,5.07
2023-04-16T11:37:33.595Z,5.30
2023-04-16T11:40:02.257Z,4.70
2023-04-16T11:42:30.771Z,4.80
2023-04-16T11:45:01.394Z,5.70
2023-04-16T11:47:31.506Z,5.70
2023-04-16T11:49:59.907Z,4.95
2023-04-16T11:52:28.733Z,6.73
2023-04-16T11:54:56.850Z,6.05
2023-04-16T11:57:26.610Z,7.03
2023-04-16T12:00:01.698Z,6.15
2023-04-16T12:02:43.177Z,4.53
2023-04-16T12:05:30.695Z,5.73
2023-04-16T12:07:59.988Z,5.53
2023-04-16T12:10:28.525Z,5.95
2023-04-16T12:13:10.923Z,5.55
2023-04-16T12:15:46.979Z,5.50
2023-04-16T12:18:16.966Z,5.47
2023-04-16T12:20:45.583Z,5.20
2023-04-16T12:23:24.008Z,6.45
2023-04-16T12:25:54.941Z,5.03
2023-04-16T12:28:31.145Z,5.70
2023-04-16T12:30:59.235Z,5.20
2023-04-16T12:33:29.033Z,5.50
2023-04-16T12:35:57.016Z,5.38
2023-04-16T12:38:26.201Z,5.93
2023-04-16T12:40:56.812Z,5.13
2023-04-16T12:43:25.987Z,5.00
2023-04-16T12:45:54.098Z,5.07
2023-04-16T12:48:22.594Z,5.28
2023-04-16T12:50:54.710Z,5.32
2023-04-16T12:53:23.093Z,5.93
2023-04-16T12:55:51.493Z,5.67
2023-04-16T12:58:19.730Z,6.43
2023-04-16T13:00:47.819Z,6.10
2023-04-16T13:03:16.281Z,6.25
2023-04-16T13:05:44.573Z,6.38
2023-04-16T13:08:14.219Z,6.07
2023-04-16T13:10:42.292Z,5.53
2023-04-16T13:13:10.624Z,6.05
2023-04-16T13:15:38.734Z,5.82
2023-04-16T13:18:07.050Z,5.80
2023-04-16T13:20:35.182Z,5.30
2023-04-16T13:23:04.861Z,4.80
2023-04-16T13:25:34.330Z,5.22
2023-04-16T13:28:02.642Z,4.80
2023-04-16T13:30:31.798Z,4.28
2023-04-16T13:33:00.537Z,5.00
2023-04-16T13:35:28.686Z,5.75
2023-04-16T13:37:56.948Z,5.57
2023-04-16T13:40:24.989Z,5.22
2023-04-16T13:42:54.583Z,5.05
2023-04-16T13:45:22.666Z,6.20
2023-04-16T13:47:50.974Z,5.28
2023-04-16T13:50:19.330Z,6.30
2023-04-16T13:52:47.818Z,4.90
2023-04-16T13:55:18.904Z,5.50
2023-04-16T13:57:48.042Z,4.83
2023-04-16T14:00:18.636Z,5.55
2023-04-16T14:02:48.663Z,5.40
2023-04-16T14:05:17.053Z,5.97
2023-04-16T14:07:45.382Z,5.68
2023-04-16T14:10:13.447Z,6.57
2023-04-16T14:12:41.978Z,5.65
2023-04-16T14:15:10.612Z,5.72
2023-04-16T14:17:40.270Z,5.88
2023-04-16T14:20:09.259Z,5.95
2023-04-16T14:22:37.561Z,5.37
2023-04-16T14:25:06.346Z,5.55
2023-04-16T14:27:35.102Z,6.88
2023-04-16T14:30:03.294Z,5.90
2023-04-16T14:32:31.639Z,6.10
2023-04-16T14:35:02.698Z,5.73
2023-04-16T14:37:31.803Z,6.35
2023-04-16T14:39:59.884Z,6.00
2023-04-16T14:42:28.397Z,6.47
2023-04-16T14:44:56.593Z,5.45
2023-04-16T14:47:25.182Z,5.93
2023-04-16T14:49:53.291Z,5.93
2023-04-16T14:52:23.386Z,6.72
2023-04-16T14:54:52.207Z,5.50
2023-04-16T14:57:20.587Z,6.60
2023-04-16T14:59:49.255Z,6.00
2023-04-16T15:02:17.769Z,6.90
2023-04-16T15:04:46.452Z,7.10
2023-04-16T15:07:14.870Z,5.85
2023-04-16T15:09:44.276Z,5.93
2023-04-16T15:12:12.683Z,6.63
2023-04-16T15:14:40.980Z,6.57
2023-04-16T15:17:09.466Z,7.80
2023-04-16T15:19:37.745Z,5.60
2023-04-16T15:22:06.694Z,7.10
2023-04-16T15:24:34.737Z,5.73
2023-04-16T15:27:07.162Z,6.25
2023-04-16T15:29:35.804Z,6.05
2023-04-16T15:32:04.154Z,6.50
2023-04-16T15:34:32.321Z,6.53
2023-04-16T15:37:00.862Z,6.23
2023-04-16T15:39:28.961Z,6.95
2023-04-16T15:42:00.843Z,7.93
2023-04-16T15:44:32.355Z,6.80
2023-04-16T15:47:00.820Z,7.15
2023-04-16T15:49:28.936Z,7.57
2023-04-16T15:51:57.233Z,6.80
2023-04-16T15:54:25.581Z,6.20
2023-04-16T15:56:53.869Z,6.38
2023-04-16T15:59:21.909Z,6.75
2023-04-16T16:01:51.607Z,5.77
2023-04-16T16:04:22.129Z,6.70
2023-04-16T16:06:50.676Z,6.50
2023-04-16T16:09:25.465Z,6.25
2023-04-16T16:11:54.343Z,6.65
2023-04-16T16:14:23.132Z,6.33
2023-04-16T16:16:52.787Z,6.18
2023-04-16T16:19:20.836Z,6.35
2023-04-16T16:21:49.154Z,7.13
2023-04-16T16:24:17.242Z,6.03
2023-04-16T16:26:45.506Z,6.20
2023-04-16T16:29:13.659Z,5.90
2023-04-16T16:31:42.046Z,7.50
2023-04-16T16:34:19.969Z,6.15
2023-04-16T16:36:49.116Z,7.30
2023-04-16T16:39:17.125Z,6.43
2023-04-16T16:41:45.612Z,7.22
2023-04-16T16:44:13.768Z,7.03
2023-04-16T16:46:42.088Z,7.38
2023-04-16T16:49:11.714Z,7.00
2023-04-16T16:51:40.414Z,5.83
2023-04-16T16:54:08.868Z,6.20
2023-04-16T16:56:37.208Z,6.50
2023-04-16T16:59:05.361Z,6.90
2023-04-16T17:01:33.799Z,7.22
2023-04-16T17:04:02.038Z,6.93
2023-04-16T17:06:33.203Z,7.20
2023-04-16T17:09:01.284Z,7.15
2023-04-16T17:11:29.499Z,6.38
2023-04-16T17:13:57.586Z,7.30
2023-04-16T17:16:26.052Z,7.10
2023-04-16T17:18:54.078Z,8.18
2023-04-16T17:21:22.354Z,6.78
2023-04-16T17:23:51.760Z,8.18
2023-04-16T17:26:20.090Z,6.80
2023-04-16T17:28:48.142Z,6.10
2023-04-16T17:31:16.506Z,6.78
2023-04-16T17:33:44.955Z,5.85
2023-04-16T17:36:13.693Z,5.93
2023-04-16T17:38:44.706Z,6.78
2023-04-16T17:41:14.673Z,6.50
2023-04-16T17:43:42.706Z,6.28
2023-04-16T17:46:11.590Z,7.72
2023-04-16T17:48:40.984Z,7.35
2023-04-16T17:51:12.821Z,7.32
2023-04-16T17:53:42.566Z,6.97
2023-04-16T17:56:11.181Z,6.97
2023-04-16T17:58:40.815Z,5.78
2023-04-16T18:01:09.229Z,7.05
2023-04-16T18:03:38.201Z,7.30
2023-04-16T18:06:06.978Z,6.27
2023-04-16T18:08:36.856Z,7.55
2023-04-16T18:11:07.585Z,7.07
2023-04-16T18:13:35.728Z,7.25
2023-04-16T18:16:06.203Z,7.57
2023-04-16T18:18:34.284Z,7.77
2023-04-16T18:21:02.548Z,6.85
2023-04-16T18:23:30.687Z,7.25
2023-04-16T18:25:58.935Z,7.75
2023-04-16T18:28:27.738Z,8.00
2023-04-16T18:30:59.043Z,6.93
2023-04-16T18:33:52.288Z,6.93
2023-04-16T18:36:17.282Z,6.82
2023-04-16T18:38:59.523Z,6.57
2023-04-16T18:41:29.923Z,7.25
2023-04-16T18:43:58.526Z,7.63
2023-04-16T18:46:27.382Z,7.03
2023-04-16T18:48:58.876Z,7.68
2023-04-16T18:51:27.637Z,8.05
2023-04-16T18:53:55.666Z,8.55
2023-04-16T18:56:24.382Z,7.53
2023-04-16T18:58:52.511Z,6.88
2023-04-16T19:01:20.869Z,7.47
2023-04-16T19:03:48.944Z,6.30
2023-04-16T19:06:18.589Z,7.90
2023-04-16T19:08:46.657Z,7.97
2023-04-16T19:11:14.964Z,8.35
2023-04-16T19:13:43.146Z,8.50
2023-04-16T19:16:12.289Z,9.05
2023-04-16T19:18:40.522Z,7.60
2023-04-16T19:21:10.632Z,8.70
2023-04-16T19:23:40.132Z,9.48
2023-04-16T19:26:08.502Z,9.48
2023-04-16T19:28:38.464Z,10.20
2023-04-16T19:31:07.234Z,8.38
2023-04-16T19:33:35.415Z,7.43
2023-04-16T19:36:04.027Z,6.72
2023-04-16T19:38:32.401Z,5.95
2023-04-16T19:41:02.107Z,7.68
2023-04-16T19:43:30.968Z,6.70
2023-04-16T19:45:59.655Z,6.47
2023-04-16T19:48:30.180Z,6.75
2023-04-16T19:51:02.644Z,7.28
2023-04-16T19:53:34.367Z,6.72
2023-04-16T19:56:04.474Z,6.32
2023-04-16T19:58:32.582Z,6.83
2023-04-16T20:01:01.109Z,6.43
2023-04-16T20:03:29.390Z,7.68
2023-04-16T20:05:57.842Z,6.93
2023-04-16T20:08:26.021Z,7.93
2023-04-16T20:10:54.437Z,7.20
2023-04-16T20:13:25.507Z,8.57
2023-04-16T20:15:54.048Z,7.50
2023-04-16T20:18:22.205Z,8.32
2023-04-16T20:20:50.752Z,8.60
2023-04-16T20:23:18.906Z,7.93
2023-04-16T20:25:47.319Z,8.27
2023-04-16T20:28:16.199Z,8.23
2023-04-16T20:30:45.975Z,6.15
2023-04-16T20:33:14.229Z,6.88
2023-04-16T20:35:42.586Z,8.37
2023-04-16T20:38:10.598Z,7.95
2023-04-16T20:40:41.885Z,8.00
2023-04-16T20:43:14.038Z,6.70
2023-04-16T20:45:46.010Z,6.68
2023-04-16T20:48:15.493Z,7.23
2023-04-16T20:50:43.820Z,6.22
2023-04-16T20:53:12.916Z,6.38
2023-04-16T20:55:41.186Z,5.85
2023-04-16T20:58:09.334Z,5.18
2023-04-16T21:00:37.694Z,5.37
2023-04-16T21:03:06.709Z,5.55
2023-04-16T21:05:36.882Z,6.72
2023-04-16T21:08:05.312Z,5.82
2023-04-16T21:10:33.742Z,5.38
2023-04-16T21:13:01.834Z,5.57
2023-04-16T21:15:30.450Z,5.18
2023-04-16T21:17:58.943Z,4.90
2023-04-16T21:20:30.353Z,5.63
2023-04-16T21:23:00.298Z,5.25
2023-04-16T21:25:28.652Z,5.40
2023-04-16T21:27:56.766Z,6.38
2023-04-16T21:30:25.058Z,5.30
2023-04-16T21:32:53.155Z,4.97
2023-04-16T21:35:21.577Z,5.03
2023-04-16T21:37:49.767Z,4.43
2023-04-16T21:40:20.392Z,5.18
2023-04-16T21:42:48.446Z,4.30
2023-04-16T21:45:16.711Z,4.57
2023-04-16T21:47:44.900Z,5.30
2023-04-16T21:50:14.013Z,5.17
2023-04-16T21:52:46.049Z,5.00
2023-04-16T21:55:16.017Z,4.40
2023-04-16T21:57:45.419Z,5.45
2023-04-16T22:00:14.531Z,4.93
2023-04-16T22:02:43.280Z,4.60
2023-04-16T22:05:12.072Z,4.28
2023-04-16T22:07:40.798Z,4.50
2023-04-16T22:10:11.030Z,4.47
2023-04-16T22:12:40.149Z,5.07
2023-04-16T22:15:10.594Z,4.47
2023-04-16T22:17:39.546Z,4.93
2023-04-16T22:20:11.506Z,5.07
2023-04-16T22:22:39.934Z,4.95
2023-04-16T22:25:09.299Z,4.57
2023-04-16T22:27:37.530Z,4.30
2023-04-16T22:30:07.140Z,4.95
2023-04-16T22:32:38.485Z,4.35
2023-04-16T22:35:07.369Z,4.18
2023-04-16T22:37:35.428Z,5.22
2023-04-16T22:40:06.989Z,5.37
2023-04-16T22:42:35.085Z,4.88
2023-04-16T22:45:04.762Z,4.60
2023-04-16T22:47:32.978Z,4.28
2023-04-16T22:50:03.293Z,3.85
2023-04-16T22:52:31.546Z,4.67
2023-04-16T22:54:59.863Z,4.45
2023-04-16T22:57:27.932Z,5.07
2023-04-16T22:59:56.271Z,4.68
2023-04-16T23:02:24.565Z,4.40
2023-04-16T23:04:53.197Z,4.40
2023-04-16T23:07:22.662Z,4.50
2023-04-16T23:09:51.212Z,4.07
2023-04-16T23:12:19.410Z,4.45
2023-04-16T23:14:48.302Z,4.57
2023-04-16T23:17:18.661Z,4.50
2023-04-16T23:19:47.042Z,4.28
2023-04-16T23:22:15.034Z,4.07
2023-04-16T23:24:44.645Z,4.82
2023-04-16T23:27:12.727Z,4.72
2023-04-16T23:29:41.034Z,4.57
2023-04-16T23:32:09.059Z,4.10
2023-04-16T23:34:37.322Z,4.55
2023-04-16T23:37:05.429Z,5.13
2023-04-16T23:39:33.741Z,4.07
2023-04-16T23:42:03.155Z,4.50
2023-04-16T23:44:31.539Z,4.65
2023-04-16T23:46:59.833Z,4.65
2023-04-16T23:49:28.136Z,4.30
2023-04-16T23:51:56.320Z,4.45
2023-04-16T23:54:24.639Z,5.20
2023-04-16T23:56:52.640Z,4.13
2023-04-16T23:59:22.776Z,4.47
